createdAt,value
2022-07-30T00:01:39.528Z,5.47
2022-07-30T00:04:05.992Z,5.30
2022-07-30T00:06:32.921Z,4.68
2022-07-30T00:08:59.441Z,4.10
2022-07-30T00:11:27.898Z,4.88
2022-07-30T00:13:54.717Z,4.80
2022-07-30T00:16:21.542Z,4.47
2022-07-30T00:18:48.036Z,4.35
2022-07-30T00:21:32.102Z,4.30
2022-07-30T00:24:02.394Z,4.72
2022-07-30T00:26:28.964Z,4.53
2022-07-30T00:28:55.403Z,5.03
2022-07-30T00:31:21.812Z,4.85
2022-07-30T00:33:48.183Z,9.27
2022-07-30T00:36:14.534Z,4.68
2022-07-30T00:38:41.003Z,4.40
2022-07-30T00:41:07.367Z,4.28
2022-07-30T00:43:33.822Z,4.28
2022-07-30T00:46:00.396Z,4.45
2022-07-30T00:48:26.870Z,4.60
2022-07-30T00:50:53.243Z,4.55
2022-07-30T00:53:19.608Z,4.57
2022-07-30T00:55:46.112Z,4.22
2022-07-30T00:58:12.706Z,4.00
2022-07-30T01:00:39.103Z,4.00
2022-07-30T01:03:05.631Z,3.75
2022-07-30T01:05:32.202Z,4.30
2022-07-30T01:07:58.871Z,4.25
2022-07-30T01:10:25.318Z,4.78
2022-07-30T01:12:52.826Z,3.60
2022-07-30T01:15:19.971Z,7.75
2022-07-30T01:17:53.118Z,4.40
2022-07-30T01:20:27.016Z,4.53
2022-07-30T01:23:31.931Z,4.53
2022-07-30T01:26:07.765Z,5.82
2022-07-30T01:28:37.732Z,5.65
2022-07-30T01:31:05.709Z,5.18
2022-07-30T01:33:32.851Z,4.53
2022-07-30T01:35:59.956Z,4.80
2022-07-30T01:38:27.282Z,7.07
2022-07-30T01:40:58.014Z,5.45
2022-07-30T01:43:24.948Z,5.00
2022-07-30T01:45:53.021Z,5.32
2022-07-30T01:48:21.415Z,5.28
2022-07-30T01:50:49.518Z,5.60
2022-07-30T01:53:21.914Z,5.22
2022-07-30T01:55:48.602Z,4.47
2022-07-30T01:58:17.074Z,4.88
2022-07-30T02:00:44.589Z,5.53
2022-07-30T02:03:11.313Z,4.85
2022-07-30T02:05:38.575Z,5.50
2022-07-30T02:08:13.173Z,5.50
2022-07-30T02:10:44.451Z,5.45
2022-07-30T02:13:13.074Z,5.00
2022-07-30T02:15:58.190Z,5.05
2022-07-30T02:18:43.378Z,5.55
2022-07-30T02:21:13.165Z,4.93
2022-07-30T02:23:43.281Z,4.88
2022-07-30T02:26:10.141Z,5.55
2022-07-30T02:28:38.608Z,5.22
2022-07-30T02:31:17.771Z,4.90
2022-07-30T02:33:49.014Z,5.95
2022-07-30T02:36:15.998Z,6.63
2022-07-30T02:38:43.990Z,5.15
2022-07-30T02:41:12.211Z,5.50
2022-07-30T02:43:40.836Z,5.22
2022-07-30T02:46:09.397Z,5.70
2022-07-30T02:48:36.605Z,7.47
2022-07-30T02:51:03.313Z,5.05
2022-07-30T02:53:30.334Z,5.28
2022-07-30T02:55:56.987Z,5.95
2022-07-30T02:58:24.522Z,5.43
2022-07-30T03:00:52.485Z,6.97
2022-07-30T03:03:20.047Z,8.13
2022-07-30T03:05:46.779Z,5.15
2022-07-30T03:08:15.264Z,5.25
2022-07-30T03:10:47.323Z,4.88
2022-07-30T03:13:13.902Z,4.47
2022-07-30T03:15:46.512Z,5.55
2022-07-30T03:18:15.026Z,5.35
2022-07-30T03:20:47.598Z,5.18
2022-07-30T03:23:17.047Z,6.78
2022-07-30T03:25:45.850Z,9.00
2022-07-30T03:28:12.831Z,5.55
2022-07-30T03:30:39.522Z,4.53
2022-07-30T03:33:06.737Z,4.80
2022-07-30T03:35:33.673Z,4.78
2022-07-30T03:38:00.421Z,4.97
2022-07-30T03:40:27.159Z,4.75
2022-07-30T03:42:53.718Z,5.30
2022-07-30T03:45:20.223Z,7.32
2022-07-30T03:47:47.626Z,5.13
2022-07-30T03:50:15.508Z,5.40
2022-07-30T03:52:42.741Z,5.03
2022-07-30T03:55:10.590Z,4.97
2022-07-30T03:57:37.250Z,6.68
2022-07-30T04:00:08.574Z,7.05
2022-07-30T04:02:42.544Z,5.72
2022-07-30T04:05:09.094Z,6.15
2022-07-30T04:07:35.561Z,7.10
2022-07-30T04:10:11.459Z,5.88
2022-07-30T04:12:37.927Z,5.18
2022-07-30T04:16:04.937Z,5.40
2022-07-30T04:17:58.906Z,6.13
2022-07-30T04:20:29.770Z,5.45
2022-07-30T04:22:57.735Z,6.70
2022-07-30T04:25:24.858Z,6.15
2022-07-30T04:28:03.309Z,6.05
2022-07-30T04:30:30.554Z,7.95
2022-07-30T04:32:56.939Z,5.88
2022-07-30T04:35:50.787Z,6.13
2022-07-30T04:38:17.255Z,6.03
2022-07-30T04:40:43.648Z,5.28
2022-07-30T04:43:10.018Z,5.88
2022-07-30T04:45:36.522Z,5.38
2022-07-30T04:48:03.174Z,6.15
2022-07-30T04:50:29.544Z,6.18
2022-07-30T04:52:56.315Z,6.28
2022-07-30T04:55:23.490Z,6.50
2022-07-30T04:57:51.556Z,6.20
2022-07-30T05:00:18.282Z,4.88
2022-07-30T05:02:46.507Z,4.88
2022-07-30T05:05:15.000Z,5.93
2022-07-30T05:07:41.958Z,5.40
2022-07-30T05:10:08.984Z,5.10
2022-07-30T05:12:37.520Z,4.97
2022-07-30T05:15:08.591Z,5.35
2022-07-30T05:17:35.690Z,5.20
2022-07-30T05:20:02.081Z,4.55
2022-07-30T05:22:30.595Z,5.90
2022-07-30T05:24:57.402Z,5.60
2022-07-30T05:27:24.011Z,5.32
2022-07-30T05:29:50.656Z,5.82
2022-07-30T05:32:17.031Z,4.93
2022-07-30T05:34:44.890Z,8.20
2022-07-30T05:37:16.653Z,5.68
2022-07-30T05:40:02.938Z,5.80
2022-07-30T05:42:29.465Z,6.25
2022-07-30T05:44:55.891Z,6.13
2022-07-30T05:47:22.835Z,6.05
2022-07-30T05:49:49.330Z,5.18
2022-07-30T05:52:15.705Z,5.28
2022-07-30T05:54:42.072Z,4.65
2022-07-30T05:57:08.451Z,6.57
2022-07-30T05:59:34.823Z,5.40
2022-07-30T06:02:03.298Z,5.22
2022-07-30T06:04:30.005Z,5.20
2022-07-30T06:06:56.433Z,6.53
2022-07-30T06:09:36.403Z,6.32
2022-07-30T06:12:03.978Z,7.25
2022-07-30T06:14:31.975Z,7.90
2022-07-30T06:16:58.638Z,13.25
2022-07-30T06:19:26.100Z,8.52
2022-07-30T06:22:01.817Z,5.28
2022-07-30T06:24:33.497Z,9.55
2022-07-30T06:27:00.293Z,5.85
2022-07-30T06:29:27.197Z,6.50
2022-07-30T06:31:53.554Z,9.13
2022-07-30T06:34:19.918Z,6.53
2022-07-30T06:36:46.305Z,8.60
2022-07-30T06:39:12.721Z,8.55
2022-07-30T06:41:39.083Z,9.05
2022-07-30T06:44:05.452Z,5.75
2022-07-30T06:46:31.893Z,9.32
2022-07-30T06:48:58.498Z,9.85
2022-07-30T06:51:26.293Z,6.72
2022-07-30T06:53:52.643Z,7.75
2022-07-30T06:56:19.221Z,9.85
2022-07-30T06:58:45.569Z,7.32
2022-07-30T07:01:11.988Z,10.52
2022-07-30T07:03:39.642Z,8.70
2022-07-30T07:06:06.784Z,7.38
2022-07-30T07:08:36.008Z,6.55
2022-07-30T07:11:02.379Z,7.70
2022-07-30T07:13:29.096Z,10.68
2022-07-30T07:15:55.476Z,9.15
2022-07-30T07:18:21.849Z,7.90
2022-07-30T07:20:48.271Z,12.55
2022-07-30T07:23:14.694Z,6.50
2022-07-30T07:25:41.577Z,7.25
2022-07-30T07:28:11.637Z,10.18
2022-07-30T07:30:41.089Z,5.93
2022-07-30T07:33:07.546Z,5.97
2022-07-30T07:35:48.390Z,10.82
2022-07-30T07:38:17.614Z,5.57
2022-07-30T07:40:44.005Z,6.53
2022-07-30T07:43:10.411Z,5.68
2022-07-30T07:45:36.766Z,7.13
2022-07-30T07:48:03.252Z,7.65
2022-07-30T07:50:29.748Z,9.75
2022-07-30T07:52:56.248Z,7.97
2022-07-30T07:55:24.437Z,5.30
2022-07-30T07:57:52.106Z,8.90
2022-07-30T08:00:19.002Z,7.85
2022-07-30T08:02:45.418Z,6.75
2022-07-30T08:05:12.582Z,8.48
2022-07-30T08:07:39.730Z,6.70
2022-07-30T08:10:06.539Z,9.50
2022-07-30T08:12:33.082Z,7.95
2022-07-30T08:14:59.864Z,9.55
2022-07-30T08:17:26.466Z,8.80
2022-07-30T08:19:52.851Z,11.02
2022-07-30T08:22:19.310Z,12.07
2022-07-30T08:24:45.833Z,9.13
2022-07-30T08:27:12.230Z,8.95
2022-07-30T08:29:38.603Z,7.72
2022-07-30T08:32:05.489Z,7.75
2022-07-30T08:34:32.070Z,6.72
2022-07-30T08:36:58.484Z,8.90
2022-07-30T08:39:24.840Z,7.85
2022-07-30T08:41:51.279Z,10.13
2022-07-30T08:44:19.169Z,7.63
2022-07-30T08:46:47.627Z,9.10
2022-07-30T08:49:15.355Z,8.93
2022-07-30T08:51:42.306Z,13.40
2022-07-30T08:54:08.831Z,11.93
2022-07-30T08:56:35.349Z,10.85
2022-07-30T08:59:05.382Z,11.07
2022-07-30T09:01:31.896Z,10.93
2022-07-30T09:03:58.310Z,9.13
2022-07-30T09:06:24.814Z,10.70
2022-07-30T09:08:51.225Z,9.25
2022-07-30T09:11:17.900Z,11.82
2022-07-30T09:13:44.844Z,10.02
2022-07-30T09:16:25.433Z,8.77
2022-07-30T09:18:53.574Z,8.25
2022-07-30T09:21:25.265Z,9.48
2022-07-30T09:24:00.601Z,6.90
2022-07-30T09:26:27.155Z,14.07
2022-07-30T09:28:53.565Z,9.07
2022-07-30T09:31:21.227Z,9.80
2022-07-30T09:33:47.733Z,11.25
2022-07-30T09:36:17.773Z,7.15
2022-07-30T09:38:54.174Z,8.43
2022-07-30T09:41:38.878Z,6.15
2022-07-30T09:44:06.220Z,7.75
2022-07-30T09:46:45.245Z,5.20
2022-07-30T09:49:26.026Z,6.72
2022-07-30T09:52:06.656Z,11.02
2022-07-30T09:54:51.813Z,6.50
2022-07-30T09:57:26.607Z,5.20
2022-07-30T09:59:56.211Z,9.10
2022-07-30T10:02:33.003Z,9.32
2022-07-30T10:05:13.856Z,7.07
2022-07-30T10:07:53.933Z,6.47
2022-07-30T10:10:26.141Z,7.00
2022-07-30T10:13:04.217Z,7.82
2022-07-30T10:15:35.850Z,5.95
2022-07-30T10:18:05.993Z,6.13
2022-07-30T10:20:33.783Z,4.47
2022-07-30T10:23:08.327Z,6.80
2022-07-30T10:25:36.463Z,5.47
2022-07-30T10:28:03.286Z,5.70
2022-07-30T10:30:30.768Z,6.93
2022-07-30T10:32:58.844Z,6.00
2022-07-30T10:35:31.218Z,5.60
2022-07-30T10:38:07.591Z,8.77
2022-07-30T10:40:39.346Z,6.82
2022-07-30T10:43:43.278Z,5.88
2022-07-30T10:46:34.669Z,3.95
2022-07-30T10:49:19.161Z,6.70
2022-07-30T10:51:50.999Z,3.88
2022-07-30T10:54:39.306Z,4.85
2022-07-30T10:57:15.280Z,4.97
2022-07-30T11:00:01.130Z,3.97
2022-07-30T11:02:35.751Z,5.85
2022-07-30T11:05:17.469Z,8.18
2022-07-30T11:07:47.624Z,5.78
2022-07-30T11:10:39.539Z,6.57
2022-07-30T11:13:08.880Z,5.40
2022-07-30T11:15:58.370Z,3.80
2022-07-30T11:18:26.115Z,3.90
2022-07-30T11:21:20.754Z,5.78
2022-07-30T11:23:49.524Z,6.95
2022-07-30T11:26:41.012Z,3.83
2022-07-30T11:29:08.685Z,4.20
2022-07-30T11:31:55.865Z,5.10
2022-07-30T11:34:25.976Z,3.22
2022-07-30T11:37:22.211Z,5.88
2022-07-30T11:39:55.284Z,3.25
2022-07-30T11:42:26.799Z,6.20
2022-07-30T11:44:53.518Z,5.88
2022-07-30T11:47:19.912Z,4.32
2022-07-30T11:49:46.343Z,3.38
2022-07-30T11:52:13.225Z,4.85
2022-07-30T11:54:55.838Z,5.13
2022-07-30T11:57:39.731Z,18.05
2022-07-30T12:00:06.907Z,4.53
2022-07-30T12:02:33.312Z,5.88
2022-07-30T12:04:59.718Z,3.00
2022-07-30T12:07:26.078Z,3.30
2022-07-30T12:09:52.471Z,4.97
2022-07-30T12:12:24.098Z,5.05
2022-07-30T12:14:51.362Z,4.03
2022-07-30T12:17:19.334Z,3.17
2022-07-30T12:19:48.798Z,4.13
2022-07-30T12:22:15.805Z,4.40
2022-07-30T12:24:42.217Z,6.30
2022-07-30T12:27:08.598Z,3.80
2022-07-30T12:29:35.553Z,4.55
2022-07-30T12:32:02.030Z,3.15
2022-07-30T12:34:28.452Z,2.90
2022-07-30T12:36:55.304Z,3.83
2022-07-30T12:39:26.334Z,2.70
2022-07-30T12:41:55.866Z,6.72
2022-07-30T12:44:37.191Z,3.55
2022-07-30T12:47:05.841Z,3.67
2022-07-30T12:49:37.654Z,5.60
2022-07-30T12:52:28.250Z,3.03
2022-07-30T12:55:11.484Z,3.38
2022-07-30T12:58:08.426Z,4.35
2022-07-30T13:00:44.229Z,6.03
2022-07-30T13:03:25.941Z,5.65
2022-07-30T13:05:55.610Z,3.80
2022-07-30T13:08:44.996Z,2.85
2022-07-30T13:11:11.402Z,4.38
2022-07-30T13:13:37.890Z,3.83
2022-07-30T13:16:06.050Z,2.80
2022-07-30T13:18:33.905Z,2.80
2022-07-30T13:21:01.129Z,5.57
2022-07-30T13:23:27.636Z,2.45
2022-07-30T13:25:54.345Z,5.88
2022-07-30T13:28:20.754Z,2.85
2022-07-30T13:30:47.635Z,3.28
2022-07-30T13:33:14.334Z,6.22
2022-07-30T13:35:40.858Z,3.20
2022-07-30T13:38:07.342Z,4.90
2022-07-30T13:40:34.341Z,4.15
2022-07-30T13:43:01.634Z,4.25
2022-07-30T13:45:28.197Z,3.42
2022-07-30T13:47:54.852Z,5.22
2022-07-30T13:50:21.556Z,4.93
2022-07-30T13:52:48.035Z,2.83
2022-07-30T13:55:14.648Z,5.45
2022-07-30T13:57:41.027Z,6.30
2022-07-30T14:00:12.548Z,4.70
2022-07-30T14:02:39.054Z,6.18
2022-07-30T14:05:08.630Z,2.53
2022-07-30T14:07:39.347Z,3.35
2022-07-30T14:10:07.067Z,4.00
2022-07-30T14:12:34.745Z,2.70
2022-07-30T14:15:01.658Z,4.43
2022-07-30T14:17:28.169Z,4.25
2022-07-30T14:19:54.553Z,5.32
2022-07-30T14:22:21.404Z,3.45
2022-07-30T14:24:47.861Z,3.90
2022-07-30T14:27:14.431Z,4.82
2022-07-30T14:29:40.820Z,2.25
2022-07-30T14:32:07.191Z,4.93
2022-07-30T14:34:33.537Z,6.50
2022-07-30T14:37:00.244Z,4.50
2022-07-30T14:39:26.978Z,3.40
2022-07-30T14:41:56.337Z,3.10
2022-07-30T14:44:23.240Z,5.22
2022-07-30T14:47:02.075Z,3.72
2022-07-30T14:49:28.686Z,3.95
2022-07-30T14:51:55.118Z,3.75
2022-07-30T14:54:21.664Z,5.53
2022-07-30T14:56:48.662Z,2.67
2022-07-30T14:59:15.388Z,3.20
2022-07-30T15:01:42.152Z,4.00
2022-07-30T15:04:12.363Z,5.57
2022-07-30T15:06:40.589Z,2.45
2022-07-30T15:09:08.013Z,2.05
2022-07-30T15:11:44.996Z,3.55
2022-07-30T15:14:21.066Z,3.17
2022-07-30T15:16:47.894Z,5.50
2022-07-30T15:19:14.349Z,1.90
2022-07-30T15:21:40.743Z,2.25
2022-07-30T15:24:07.225Z,2.13
2022-07-30T15:26:33.593Z,2.20
2022-07-30T15:29:00.094Z,2.17
2022-07-30T15:31:26.473Z,6.07
2022-07-30T15:33:52.840Z,3.03
2022-07-30T15:36:20.058Z,3.83
2022-07-30T15:38:46.632Z,3.33
2022-07-30T15:41:13.766Z,3.00
2022-07-30T15:43:40.416Z,2.92
2022-07-30T15:46:06.790Z,2.03
2022-07-30T15:48:33.231Z,2.53
2022-07-30T15:51:03.771Z,3.85
2022-07-30T15:53:31.366Z,2.33
2022-07-30T15:55:58.599Z,2.88
2022-07-30T15:58:25.010Z,1.77
2022-07-30T16:00:51.590Z,3.08
2022-07-30T16:03:18.043Z,3.78
2022-07-30T16:05:51.085Z,3.05
2022-07-30T16:08:19.033Z,3.13
2022-07-30T16:10:45.455Z,3.55
2022-07-30T16:13:11.818Z,4.28
2022-07-30T16:15:38.219Z,2.85
2022-07-30T16:18:04.783Z,4.28
2022-07-30T16:20:32.071Z,4.47
2022-07-30T16:22:58.622Z,3.65
2022-07-30T16:25:25.107Z,2.25
2022-07-30T16:27:51.574Z,2.05
2022-07-30T16:30:17.958Z,4.07
2022-07-30T16:32:44.339Z,2.10
2022-07-30T16:35:13.321Z,4.65
2022-07-30T16:37:39.966Z,5.13
2022-07-30T16:40:06.651Z,2.35
2022-07-30T16:42:33.309Z,2.88
2022-07-30T16:44:59.735Z,2.08
2022-07-30T16:47:26.229Z,2.67
2022-07-30T16:49:52.652Z,3.60
2022-07-30T16:52:19.043Z,3.45
2022-07-30T16:54:45.446Z,3.83
2022-07-30T16:57:11.810Z,3.50
2022-07-30T16:59:38.709Z,2.25
2022-07-30T17:02:10.272Z,4.50
2022-07-30T17:04:36.825Z,3.25
2022-07-30T17:07:03.209Z,2.10
2022-07-30T17:09:36.422Z,2.15
2022-07-30T17:12:05.308Z,3.13
2022-07-30T17:14:32.475Z,4.13
2022-07-30T17:16:59.117Z,2.72
2022-07-30T17:19:25.973Z,1.60
2022-07-30T17:21:52.429Z,4.57
2022-07-30T17:24:19.059Z,1.65
2022-07-30T17:26:46.721Z,2.95
2022-07-30T17:29:15.108Z,2.00
2022-07-30T17:31:43.882Z,2.55
2022-07-30T17:34:10.681Z,3.05
2022-07-30T17:36:37.894Z,1.70
2022-07-30T17:39:05.180Z,2.22
2022-07-30T17:41:32.078Z,2.97
2022-07-30T17:43:59.039Z,2.17
2022-07-30T17:46:25.667Z,2.42
2022-07-30T17:48:52.101Z,4.18
2022-07-30T17:51:18.570Z,1.98
2022-07-30T17:53:45.157Z,3.17
2022-07-30T17:56:26.967Z,3.20
2022-07-30T17:58:54.011Z,2.65
2022-07-30T18:01:20.426Z,1.70
2022-07-30T18:03:46.830Z,1.65
2022-07-30T18:06:13.188Z,2.72
2022-07-30T18:08:39.694Z,3.50
2022-07-30T18:11:08.598Z,2.53
2022-07-30T18:13:37.142Z,5.88
2022-07-30T18:16:03.641Z,1.85
2022-07-30T18:18:30.068Z,3.38
2022-07-30T18:20:56.455Z,3.78
2022-07-30T18:23:23.044Z,3.38
2022-07-30T18:25:51.635Z,2.63
2022-07-30T18:28:18.414Z,2.13
2022-07-30T18:30:44.954Z,3.90
2022-07-30T18:33:11.363Z,2.00
2022-07-30T18:35:37.959Z,2.50
2022-07-30T18:38:04.391Z,2.60
2022-07-30T18:40:32.237Z,4.00
2022-07-30T18:42:58.966Z,3.03
2022-07-30T18:45:25.498Z,3.10
2022-07-30T18:47:51.863Z,3.17
2022-07-30T18:50:18.689Z,5.80
2022-07-30T18:52:45.188Z,3.75
2022-07-30T18:55:12.333Z,3.30
2022-07-30T18:57:39.681Z,5.78
2022-07-30T19:00:08.779Z,3.75
2022-07-30T19:02:36.925Z,4.68
2022-07-30T19:05:03.842Z,4.18
2022-07-30T19:07:30.229Z,3.55
2022-07-30T19:10:17.703Z,3.92
2022-07-30T19:12:44.394Z,5.55
2022-07-30T19:15:14.161Z,3.22
2022-07-30T19:17:42.569Z,2.70
2022-07-30T19:20:13.081Z,3.47
2022-07-30T19:22:40.830Z,2.75
2022-07-30T19:25:08.035Z,3.72
2022-07-30T19:27:34.603Z,6.10
2022-07-30T19:30:01.023Z,6.43
2022-07-30T19:32:30.067Z,3.30
2022-07-30T19:34:56.565Z,3.45
2022-07-30T19:37:23.599Z,5.47
2022-07-30T19:40:05.679Z,4.15
2022-07-30T19:42:33.113Z,5.72
2022-07-30T19:45:01.294Z,4.15
2022-07-30T19:47:39.474Z,4.72
2022-07-30T19:50:07.037Z,5.18
2022-07-30T19:52:33.691Z,4.75
2022-07-30T19:55:01.438Z,2.92
2022-07-30T19:57:52.993Z,3.22
2022-07-30T20:00:15.849Z,2.33
2022-07-30T20:02:51.658Z,5.05
2022-07-30T20:05:18.090Z,4.00
2022-07-30T20:07:45.442Z,2.97
2022-07-30T20:10:13.007Z,3.60
2022-07-30T20:12:48.997Z,2.97
2022-07-30T20:15:15.915Z,3.38
2022-07-30T20:17:42.295Z,3.50
2022-07-30T20:20:10.262Z,3.58
2022-07-30T20:22:36.624Z,3.30
2022-07-30T20:25:05.873Z,3.63
2022-07-30T20:33:06.285Z,6.70
2022-07-30T20:35:33.765Z,20.02
2022-07-30T20:38:03.017Z,25.25
2022-07-30T20:40:30.447Z,16.80
2022-07-30T20:42:56.826Z,19.13
2022-07-30T20:45:40.395Z,18.77
2022-07-30T20:48:08.412Z,19.58
2022-07-30T20:50:45.949Z,14.52
2022-07-30T20:53:13.088Z,11.35
2022-07-30T20:55:40.590Z,11.65
2022-07-30T20:58:16.676Z,5.63
2022-07-30T21:00:49.387Z,3.92
2022-07-30T21:03:16.638Z,4.15
2022-07-30T21:05:44.010Z,3.42
2022-07-30T21:08:12.792Z,4.28
2022-07-30T21:10:40.894Z,2.72
2022-07-30T21:13:11.111Z,4.20
2022-07-30T21:15:45.150Z,5.60
2022-07-30T21:18:12.235Z,2.67
2022-07-30T21:20:38.744Z,2.05
2022-07-30T21:23:10.064Z,3.75
2022-07-30T21:26:00.907Z,2.65
2022-07-30T21:28:27.561Z,4.55
2022-07-30T21:30:54.413Z,2.10
2022-07-30T21:33:24.031Z,4.40
2022-07-30T21:35:56.847Z,2.67
2022-07-30T21:38:26.234Z,1.80
2022-07-30T21:40:52.601Z,2.35
2022-07-30T21:43:29.373Z,2.30
2022-07-30T21:45:59.791Z,3.55
2022-07-30T21:48:30.246Z,3.47
2022-07-30T21:50:56.750Z,3.53
2022-07-30T21:53:29.772Z,6.90
2022-07-30T21:56:10.394Z,2.88
2022-07-30T21:58:38.462Z,3.28
2022-07-30T22:01:17.935Z,2.30
2022-07-30T22:04:01.551Z,3.78
2022-07-30T22:06:41.437Z,3.45
2022-07-30T22:09:19.913Z,2.70
2022-07-30T22:12:01.455Z,3.40
2022-07-30T22:14:28.281Z,3.78
2022-07-30T22:16:55.322Z,4.60
2022-07-30T22:19:21.864Z,3.28
2022-07-30T22:21:50.808Z,2.92
2022-07-30T22:27:13.261Z,3.05
2022-07-30T22:29:41.596Z,3.00
2022-07-30T22:32:09.147Z,2.50
2022-07-30T22:34:35.650Z,3.75
2022-07-30T22:37:02.631Z,3.33
2022-07-30T22:39:32.217Z,4.63
2022-07-30T22:42:16.151Z,2.92
2022-07-30T22:44:45.883Z,3.13
2022-07-30T22:47:18.682Z,2.63
2022-07-30T22:49:56.055Z,2.42
2022-07-30T22:52:27.670Z,3.20
2022-07-30T22:54:55.599Z,2.80
2022-07-30T22:57:22.817Z,3.45
2022-07-30T22:59:58.308Z,3.28
2022-07-30T23:02:25.598Z,2.95
2022-07-30T23:04:54.535Z,2.88
2022-07-30T23:07:22.702Z,2.63
2022-07-30T23:09:51.881Z,2.47
2022-07-30T23:12:18.142Z,2.40
2022-07-30T23:12:19.298Z,6.05
2022-07-30T23:12:20.267Z,2.60
2022-07-30T23:12:31.991Z,2.10
2022-07-30T23:14:46.982Z,3.65
2022-07-30T23:17:13.390Z,2.50
2022-07-30T23:19:39.745Z,4.03
2022-07-30T23:22:06.981Z,2.75
2022-07-30T23:24:33.513Z,4.85
2022-07-30T23:27:00.134Z,4.30
2022-07-30T23:29:26.706Z,4.40
2022-07-30T23:31:53.361Z,2.55
2022-07-30T23:34:19.913Z,2.17
2022-07-30T23:36:46.395Z,2.65
2022-07-30T23:39:14.490Z,4.18
2022-07-30T23:41:41.210Z,3.55
2022-07-30T23:44:07.592Z,2.47
2022-07-30T23:46:34.270Z,3.15
2022-07-30T23:49:00.675Z,2.65
2022-07-30T23:51:33.563Z,4.47
2022-07-30T23:54:00.445Z,3.63
2022-07-30T23:56:26.811Z,3.65
2022-07-30T23:58:53.182Z,2.63
